createdAt,value
2023-05-21T00:02:45.158Z,9.80
2023-05-21T00:07:48.303Z,10.20
2023-05-21T00:12:50.020Z,9.40
2023-05-21T00:17:52.047Z,10.10
2023-05-21T00:22:55.205Z,10.00
2023-05-21T00:27:56.959Z,8.90
2023-05-21T00:33:02.474Z,8.80
2023-05-21T00:38:07.529Z,8.40
2023-05-21T00:43:12.037Z,8.00
2023-05-21T00:48:14.895Z,9.00
2023-05-21T00:53:19.427Z,7.60
2023-05-21T00:58:21.308Z,7.57
2023-05-21T01:03:23.134Z,8.00
2023-05-21T01:08:27.154Z,8.30
2023-05-21T01:13:29.005Z,8.10
2023-05-21T01:18:35.025Z,7.40
2023-05-21T01:23:38.061Z,7.80
2023-05-21T01:28:39.920Z,7.57
2023-05-21T01:33:44.609Z,7.20
2023-05-21T01:38:50.004Z,6.87
2023-05-21T01:43:51.698Z,7.07
2023-05-21T01:48:53.438Z,6.90
2023-05-21T01:53:56.597Z,7.40
2023-05-21T01:58:59.571Z,7.13
2023-05-21T02:04:01.808Z,6.47
2023-05-21T02:09:05.066Z,6.33
2023-05-21T02:14:07.925Z,6.67
2023-05-21T02:19:10.546Z,6.50
2023-05-21T02:24:14.086Z,6.40
2023-05-21T02:29:15.916Z,7.07
2023-05-21T02:34:20.507Z,6.37
2023-05-21T02:39:23.666Z,6.97
2023-05-21T02:44:25.889Z,6.80
2023-05-21T02:49:27.613Z,5.60
2023-05-21T02:54:30.958Z,6.00
2023-05-21T02:59:32.807Z,5.80
2023-05-21T03:04:38.900Z,6.53
2023-05-21T03:09:42.391Z,6.33
2023-05-21T03:14:46.272Z,5.83
2023-05-21T03:19:49.144Z,6.17
2023-05-21T03:24:53.400Z,6.10
2023-05-21T03:29:55.796Z,5.80
2023-05-21T03:34:57.870Z,6.30
2023-05-21T03:40:00.961Z,6.10
2023-05-21T03:45:03.218Z,6.00
2023-05-21T03:50:34.012Z,6.30
2023-05-21T03:55:37.305Z,6.40
2023-05-21T04:00:39.258Z,6.00
2023-05-21T04:05:42.384Z,7.10
2023-05-21T04:10:45.654Z,6.63
2023-05-21T04:15:47.714Z,7.23
2023-05-21T04:20:50.481Z,6.20
2023-05-21T04:25:53.948Z,7.13
2023-05-21T04:30:59.373Z,6.33
2023-05-21T04:36:01.309Z,9.10
2023-05-21T04:41:04.716Z,7.70
2023-05-21T04:46:07.553Z,8.53
2023-05-21T04:51:09.526Z,8.57
2023-05-21T04:56:12.593Z,7.47
2023-05-21T05:01:14.754Z,8.17
2023-05-21T05:06:16.747Z,8.93
2023-05-21T05:11:19.820Z,8.00
2023-05-21T05:16:25.713Z,9.10
2023-05-21T05:21:27.977Z,9.90
2023-05-21T05:26:31.299Z,10.17
2023-05-21T05:31:33.218Z,9.50
2023-05-21T05:36:35.371Z,11.23
2023-05-21T05:41:39.694Z,11.13
2023-05-21T05:46:41.590Z,11.80
2023-05-21T05:51:43.360Z,13.57
2023-05-21T05:56:46.556Z,16.87
2023-05-21T06:01:48.396Z,16.77
2023-05-21T06:06:52.379Z,17.50
2023-05-21T06:11:55.639Z,18.40
2023-05-21T06:16:57.371Z,18.30
2023-05-21T06:22:00.870Z,17.53
2023-05-21T06:27:04.369Z,18.63
2023-05-21T06:32:07.762Z,19.00
2023-05-21T06:37:09.624Z,20.60
2023-05-21T06:42:12.701Z,21.40
2023-05-21T06:47:21.568Z,19.70
2023-05-21T06:52:24.376Z,20.03
2023-05-21T06:57:27.606Z,20.07
2023-05-21T07:02:29.582Z,19.93
2023-05-21T07:07:31.539Z,18.13
2023-05-21T07:12:35.760Z,21.00
2023-05-21T07:17:38.818Z,19.30
2023-05-21T07:22:41.489Z,20.33
2023-05-21T07:27:45.567Z,19.03
2023-05-21T07:32:47.344Z,20.20
2023-05-21T07:37:49.418Z,20.33
2023-05-21T07:42:52.545Z,19.30
2023-05-21T07:47:57.051Z,20.23
2023-05-21T07:52:59.910Z,20.17
2023-05-21T07:58:03.177Z,20.80
2023-05-21T08:03:07.978Z,19.17
2023-05-21T08:08:11.580Z,19.20
2023-05-21T08:13:16.368Z,19.63
2023-05-21T08:18:18.492Z,17.07
2023-05-21T08:23:21.531Z,19.00
2023-05-21T08:28:29.933Z,15.60
2023-05-21T08:33:31.804Z,15.90
2023-05-21T08:38:34.027Z,17.60
2023-05-21T08:43:50.258Z,15.20
2023-05-21T08:48:55.081Z,18.03
2023-05-21T08:53:58.890Z,18.23
2023-05-21T08:59:02.039Z,17.50
2023-05-21T09:04:20.357Z,18.50
2023-05-21T09:09:28.294Z,18.80
2023-05-21T09:14:31.810Z,18.80
2023-05-21T09:20:14.870Z,17.13
2023-05-21T09:25:23.492Z,18.10
2023-05-21T09:30:30.027Z,18.43
2023-05-21T09:35:33.404Z,17.67
2023-05-21T09:40:35.706Z,17.57
2023-05-21T09:45:39.081Z,17.53
2023-05-21T09:50:40.988Z,16.60
2023-05-21T09:55:43.236Z,16.90
2023-05-21T10:00:46.299Z,18.07
2023-05-21T10:05:48.011Z,17.40
2023-05-21T10:10:49.699Z,18.43
2023-05-21T10:15:54.927Z,17.50
2023-05-21T10:20:56.717Z,16.93
2023-05-21T10:25:58.457Z,16.90
2023-05-21T10:31:01.616Z,17.10
2023-05-21T10:36:03.747Z,18.40
2023-05-21T10:41:06.707Z,16.57
2023-05-21T10:46:19.656Z,17.50
2023-05-21T10:51:23.748Z,16.83
2023-05-21T10:56:28.631Z,17.57
2023-05-21T11:01:33.933Z,17.80
2023-05-21T11:06:35.854Z,16.80
2023-05-21T11:11:43.890Z,18.30
2023-05-21T11:16:47.013Z,16.83
2023-05-21T11:21:50.646Z,18.53
2023-05-21T11:27:04.198Z,16.27
2023-05-21T11:32:09.186Z,18.47
2023-05-21T11:37:25.340Z,18.37
2023-05-21T11:42:31.105Z,18.00
2023-05-21T11:47:34.247Z,17.43
2023-05-21T11:52:36.017Z,18.63
2023-05-21T11:57:38.208Z,17.37
2023-05-21T12:02:44.354Z,17.40
2023-05-21T12:07:48.781Z,18.60
2023-05-21T12:12:56.621Z,17.13
2023-05-21T12:18:01.258Z,17.00
2023-05-21T12:23:03.084Z,17.67
2023-05-21T12:28:05.377Z,17.83
2023-05-21T12:33:08.485Z,17.63
2023-05-21T12:38:10.331Z,17.03
2023-05-21T12:43:12.122Z,18.03
2023-05-21T12:48:15.116Z,17.93
2023-05-21T12:53:16.835Z,18.30
2023-05-21T12:58:21.963Z,18.30
2023-05-21T13:03:25.659Z,17.77
2023-05-21T13:08:27.525Z,17.77
2023-05-21T13:13:29.258Z,16.43
2023-05-21T13:18:32.280Z,15.70
2023-05-21T13:23:34.033Z,17.10
2023-05-21T13:28:35.766Z,17.17
2023-05-21T13:33:38.964Z,19.63
2023-05-21T13:38:40.747Z,18.50
2023-05-21T13:43:42.590Z,19.17
2023-05-21T13:48:45.638Z,21.37
2023-05-21T13:53:47.484Z,23.57
2023-05-21T13:58:49.243Z,24.80
2023-05-21T14:03:52.314Z,19.73
2023-05-21T14:08:54.134Z,22.00
2023-05-21T14:13:56.139Z,20.47
2023-05-21T14:18:59.300Z,21.43
2023-05-21T14:24:01.125Z,24.23
2023-05-21T14:29:02.887Z,21.87
2023-05-21T14:34:08.948Z,20.17
2023-05-21T14:39:10.658Z,20.70
2023-05-21T14:44:12.425Z,19.77
2023-05-21T14:49:15.448Z,19.60
2023-05-21T14:54:17.211Z,17.67
2023-05-21T14:59:19.032Z,17.07
2023-05-21T15:04:22.180Z,15.70
2023-05-21T15:09:24.136Z,16.23
2023-05-21T15:14:25.892Z,15.67
2023-05-21T15:19:28.985Z,14.90
2023-05-21T15:24:30.792Z,15.77
2023-05-21T15:29:32.597Z,14.23
2023-05-21T15:34:35.811Z,14.20
2023-05-21T15:39:37.771Z,14.80
2023-05-21T15:44:39.541Z,15.70
2023-05-21T15:49:42.949Z,13.80
2023-05-21T15:54:44.714Z,13.90
2023-05-21T15:59:46.490Z,15.17
2023-05-21T16:04:51.675Z,14.77
2023-05-21T16:09:53.400Z,14.13
2023-05-21T16:14:55.229Z,15.20
2023-05-21T16:19:58.368Z,14.57
2023-05-21T16:25:00.154Z,14.93
2023-05-21T16:30:02.050Z,16.10
2023-05-21T16:35:06.561Z,15.40
2023-05-21T16:40:09.651Z,14.97
2023-05-21T16:45:19.376Z,14.60
2023-05-21T16:50:22.697Z,15.87
2023-05-21T16:55:24.514Z,18.83
2023-05-21T17:00:26.359Z,22.47
2023-05-21T17:05:29.513Z,18.07
2023-05-21T17:10:31.465Z,15.00
2023-05-21T17:15:33.285Z,14.40
2023-05-21T17:20:36.365Z,14.10
2023-05-21T17:25:38.242Z,14.53
2023-05-21T17:30:40.424Z,15.00
2023-05-21T17:35:43.509Z,12.97
2023-05-21T17:40:45.266Z,13.83
2023-05-21T17:45:47.026Z,12.40
2023-05-21T17:50:51.002Z,12.60
2023-05-21T17:55:53.191Z,12.30
2023-05-21T18:00:54.920Z,17.10
2023-05-21T18:05:58.056Z,11.53
2023-05-21T18:11:01.546Z,14.90
2023-05-21T18:16:03.349Z,11.27
2023-05-21T18:21:06.422Z,10.50
2023-05-21T18:26:08.180Z,10.70
2023-05-21T18:31:10.118Z,9.90
2023-05-21T18:36:13.156Z,9.30
2023-05-21T18:41:14.900Z,10.30
2023-05-21T18:46:16.688Z,8.87
2023-05-21T18:51:19.962Z,11.20
2023-05-21T18:56:21.959Z,9.63
2023-05-21T19:01:23.899Z,9.20
2023-05-21T19:06:27.678Z,9.70
2023-05-21T19:11:34.191Z,11.50
2023-05-21T19:16:36.119Z,11.30
2023-05-21T19:21:39.298Z,10.53
2023-05-21T19:26:41.055Z,9.77
2023-05-21T19:31:42.808Z,13.73
2023-05-21T19:36:53.516Z,13.33
2023-05-21T19:41:56.367Z,13.60
2023-05-21T19:46:58.925Z,13.97
2023-05-21T19:52:02.458Z,12.73
2023-05-21T19:57:04.737Z,13.17
2023-05-21T20:02:06.662Z,13.17
2023-05-21T20:07:10.228Z,12.70
2023-05-21T20:12:12.644Z,11.93
2023-05-21T20:17:14.800Z,13.47
2023-05-21T20:22:18.063Z,12.33
2023-05-21T20:27:19.962Z,11.33
2023-05-21T20:32:22.064Z,10.43
2023-05-21T20:37:26.375Z,10.33
2023-05-21T20:42:30.928Z,9.90
2023-05-21T20:47:33.814Z,10.73
2023-05-21T20:52:37.033Z,10.87
2023-05-21T20:57:38.836Z,10.53
2023-05-21T21:02:40.637Z,10.23
2023-05-21T21:07:45.576Z,9.53
2023-05-21T21:12:47.541Z,11.63
2023-05-21T21:17:49.498Z,10.93
2023-05-21T21:22:52.663Z,10.43
2023-05-21T21:27:54.780Z,9.97
2023-05-21T21:32:56.587Z,11.10
2023-05-21T21:37:59.727Z,11.13
2023-05-21T21:43:01.469Z,11.50
2023-05-21T21:48:03.273Z,10.63
2023-05-21T21:53:06.397Z,9.27
2023-05-21T21:58:08.136Z,10.57
2023-05-21T22:03:11.584Z,10.83
2023-05-21T22:08:16.178Z,10.37
2023-05-21T22:13:17.903Z,13.40
2023-05-21T22:18:31.916Z,10.77
2023-05-21T22:23:42.331Z,9.40
2023-05-21T22:28:44.100Z,9.30
2023-05-21T22:33:45.920Z,9.40
2023-05-21T22:38:48.988Z,9.20
2023-05-21T22:43:50.687Z,9.10
2023-05-21T22:48:53.866Z,8.90
2023-05-21T22:53:56.968Z,8.80
2023-05-21T22:58:59.514Z,8.93
2023-05-21T23:04:01.390Z,8.67
2023-05-21T23:09:04.894Z,9.27
2023-05-21T23:14:06.802Z,8.83
2023-05-21T23:19:08.570Z,8.80
2023-05-21T23:24:11.671Z,8.27
2023-05-21T23:29:13.481Z,8.20
2023-05-21T23:34:15.225Z,15.20
2023-05-21T23:39:18.465Z,9.53
2023-05-21T23:44:21.000Z,8.60
2023-05-21T23:49:22.707Z,8.73
2023-05-21T23:54:25.783Z,8.23
2023-05-21T23:59:27.541Z,8.80
